Arnold, Nebraska
Current Conditions -  °F | °C
As of 1:53 AM on Thursday 29 Jan 2015 (Local Time) from KBBW Reporting Station
Overcast Overcast  
Wind Chill: 26°   Ceiling: 2600
Heat Index: 38°   Visibility: 10mi
Dew Point: 28°   Wind: 29mph
Humidity: 68%   Direction: 340°NNW
Pressure: 30.22"   Gusts: 39mph
Location:  41.42°N, 100.19°W
Report Text: KBBW 290753Z AUTO 34025G34KT 10SM OVC026 03/M02 A3022 RMK AO2 PK WND 34041/0737 SLP232 T00331022
Loading
Personal Weather Stations






























Interactive Weather Map New forecast layout! Learn more

10-Day Weather Forecast

Advertisements
Track Severe Weather on mobile